Terminal Aerodrome Forecast
Issued by NWS

Current Version | Previous Version | Graphics & Text | Print | Product List | Glossary On
Versions: 1 2 3 4 5 6 7 8 9 10 11 12 13 14 15 16
691
FTUS41 KPBZ 202324
TAFHLG
TAF
KHLG 202324Z 2100/2124 19009KT P6SM SCT050
     FM210400 19007KT P6SM VCSH BKN045
     FM210600 19008KT 5SM -SHRA OVC015
     FM211100 23007KT 5SM -SHRA OVC009
     FM211400 25007KT P6SM OVC010
     FM211600 26007KT P6SM BKN015
     FM211800 27009KT P6SM SCT050
     FM212100 27010KT P6SM SCT250=

USA.gov is the U.S. government's official web portal to all federal, state and local government web resources and services.